sensor_id;sensor_type;location;lat;lon;timestamp;temperature;humidity
26541;DHT22;14206;50.202;10.948;2023-07-24T00:00:34;19.30;77.80
26541;DHT22;14206;50.202;10.948;2023-07-24T00:03:02;19.30;78.10
26541;DHT22;14206;50.202;10.948;2023-07-24T00:05:29;19.20;78.10
26541;DHT22;14206;50.202;10.948;2023-07-24T00:07:56;19.20;78.30
26541;DHT22;14206;50.202;10.948;2023-07-24T00:10:24;19.20;78.40
26541;DHT22;14206;50.202;10.948;2023-07-24T00:12:51;19.10;78.60
26541;DHT22;14206;50.202;10.948;2023-07-24T00:15:18;19.10;78.90
26541;DHT22;14206;50.202;10.948;2023-07-24T00:17:45;19.10;78.70
26541;DHT22;14206;50.202;10.948;2023-07-24T00:20:12;19.00;78.80
26541;DHT22;14206;50.202;10.948;2023-07-24T00:22:39;19.00;78.60
26541;DHT22;14206;50.202;10.948;2023-07-24T00:25:06;18.90;78.80
26541;DHT22;14206;50.202;10.948;2023-07-24T00:27:33;18.80;78.40
26541;DHT22;14206;50.202;10.948;2023-07-24T00:30:00;18.80;78.20
26541;DHT22;14206;50.202;10.948;2023-07-24T00:32:27;18.80;79.00
26541;DHT22;14206;50.202;10.948;2023-07-24T00:34:54;18.70;78.80
26541;DHT22;14206;50.202;10.948;2023-07-24T00:37:23;18.70;79.00
26541;DHT22;14206;50.202;10.948;2023-07-24T00:39:50;18.70;78.80
26541;DHT22;14206;50.202;10.948;2023-07-24T00:42:17;18.70;78.90
26541;DHT22;14206;50.202;10.948;2023-07-24T00:44:47;18.70;79.40
26541;DHT22;14206;50.202;10.948;2023-07-24T00:47:17;18.80;79.50
26541;DHT22;14206;50.202;10.948;2023-07-24T00:49:46;18.70;79.20
26541;DHT22;14206;50.202;10.948;2023-07-24T00:52:14;18.70;79.50
26541;DHT22;14206;50.202;10.948;2023-07-24T00:54:43;18.60;79.50
26541;DHT22;14206;50.202;10.948;2023-07-24T00:57:12;18.60;80.00
26541;DHT22;14206;50.202;10.948;2023-07-24T00:59:41;18.60;79.90
26541;DHT22;14206;50.202;10.948;2023-07-24T01:02:08;18.60;80.10
26541;DHT22;14206;50.202;10.948;2023-07-24T01:04:38;18.60;79.90
26541;DHT22;14206;50.202;10.948;2023-07-24T01:07:05;18.60;80.20
26541;DHT22;14206;50.202;10.948;2023-07-24T01:09:33;18.60;80.00
26541;DHT22;14206;50.202;10.948;2023-07-24T01:12:39;18.50;80.00
26541;DHT22;14206;50.202;10.948;2023-07-24T01:15:44;18.50;80.70
26541;DHT22;14206;50.202;10.948;2023-07-24T01:18:13;18.50;80.70
26541;DHT22;14206;50.202;10.948;2023-07-24T01:20:49;18.40;80.10
26541;DHT22;14206;50.202;10.948;2023-07-24T01:26:07;18.40;80.20
26541;DHT22;14206;50.202;10.948;2023-07-24T01:28:34;18.40;80.70
26541;DHT22;14206;50.202;10.948;2023-07-24T01:31:01;18.40;80.60
26541;DHT22;14206;50.202;10.948;2023-07-24T01:33:28;18.40;80.30
26541;DHT22;14206;50.202;10.948;2023-07-24T01:35:58;18.40;80.70
26541;DHT22;14206;50.202;10.948;2023-07-24T01:38:26;18.30;80.60
26541;DHT22;14206;50.202;10.948;2023-07-24T01:40:54;18.30;80.60
26541;DHT22;14206;50.202;10.948;2023-07-24T01:43:22;18.30;81.00
26541;DHT22;14206;50.202;10.948;2023-07-24T01:45:49;18.30;81.10
26541;DHT22;14206;50.202;10.948;2023-07-24T01:48:17;18.40;80.70
26541;DHT22;14206;50.202;10.948;2023-07-24T01:50:44;18.40;80.50
26541;DHT22;14206;50.202;10.948;2023-07-24T01:53:11;18.40;81.20
26541;DHT22;14206;50.202;10.948;2023-07-24T01:55:38;18.50;80.80
26541;DHT22;14206;50.202;10.948;2023-07-24T01:58:06;18.50;80.10
26541;DHT22;14206;50.202;10.948;2023-07-24T02:00:33;18.40;80.50
26541;DHT22;14206;50.202;10.948;2023-07-24T02:03:01;18.40;80.50
26541;DHT22;14206;50.202;10.948;2023-07-24T02:05:28;18.50;80.90
26541;DHT22;14206;50.202;10.948;2023-07-24T02:07:55;18.50;80.60
26541;DHT22;14206;50.202;10.948;2023-07-24T02:10:22;18.60;80.60
26541;DHT22;14206;50.202;10.948;2023-07-24T02:12:49;18.60;80.60
26541;DHT22;14206;50.202;10.948;2023-07-24T02:15:16;18.60;79.00
26541;DHT22;14206;50.202;10.948;2023-07-24T02:17:43;18.60;79.10
26541;DHT22;14206;50.202;10.948;2023-07-24T02:20:10;18.60;79.60
26541;DHT22;14206;50.202;10.948;2023-07-24T02:22:37;18.50;79.00
26541;DHT22;14206;50.202;10.948;2023-07-24T02:25:05;18.50;79.50
26541;DHT22;14206;50.202;10.948;2023-07-24T02:27:32;18.50;79.50
26541;DHT22;14206;50.202;10.948;2023-07-24T02:30:02;18.50;79.40
26541;DHT22;14206;50.202;10.948;2023-07-24T02:32:29;18.50;79.60
26541;DHT22;14206;50.202;10.948;2023-07-24T02:34:56;18.50;79.80
26541;DHT22;14206;50.202;10.948;2023-07-24T02:37:23;18.40;79.90
26541;DHT22;14206;50.202;10.948;2023-07-24T02:39:51;18.30;79.00
26541;DHT22;14206;50.202;10.948;2023-07-24T02:42:19;18.30;79.40
26541;DHT22;14206;50.202;10.948;2023-07-24T02:44:46;18.30;79.60
26541;DHT22;14206;50.202;10.948;2023-07-24T02:47:13;18.30;79.80
26541;DHT22;14206;50.202;10.948;2023-07-24T02:49:40;18.40;80.50
26541;DHT22;14206;50.202;10.948;2023-07-24T02:52:07;18.40;79.90
26541;DHT22;14206;50.202;10.948;2023-07-24T02:54:34;18.30;79.30
26541;DHT22;14206;50.202;10.948;2023-07-24T02:57:01;18.30;79.10
26541;DHT22;14206;50.202;10.948;2023-07-24T02:59:29;18.30;79.10
26541;DHT22;14206;50.202;10.948;2023-07-24T03:01:58;18.30;78.80
26541;DHT22;14206;50.202;10.948;2023-07-24T03:04:26;18.40;78.70
26541;DHT22;14206;50.202;10.948;2023-07-24T03:06:52;18.40;78.80
26541;DHT22;14206;50.202;10.948;2023-07-24T03:09:20;18.50;78.90
26541;DHT22;14206;50.202;10.948;2023-07-24T03:11:47;18.50;78.80
26541;DHT22;14206;50.202;10.948;2023-07-24T03:14:24;18.40;79.40
26541;DHT22;14206;50.202;10.948;2023-07-24T03:16:51;18.30;78.90
26541;DHT22;14206;50.202;10.948;2023-07-24T03:19:18;18.30;79.30
26541;DHT22;14206;50.202;10.948;2023-07-24T03:21:46;18.30;79.50
26541;DHT22;14206;50.202;10.948;2023-07-24T03:24:13;18.20;79.40
26541;DHT22;14206;50.202;10.948;2023-07-24T03:26:41;18.20;79.80
26541;DHT22;14206;50.202;10.948;2023-07-24T03:29:07;18.20;79.90
26541;DHT22;14206;50.202;10.948;2023-07-24T03:31:35;18.20;80.00
26541;DHT22;14206;50.202;10.948;2023-07-24T03:34:02;18.10;80.00
26541;DHT22;14206;50.202;10.948;2023-07-24T03:36:29;18.10;80.30
26541;DHT22;14206;50.202;10.948;2023-07-24T03:38:56;18.00;80.50
26541;DHT22;14206;50.202;10.948;2023-07-24T03:41:23;18.00;80.80
26541;DHT22;14206;50.202;10.948;2023-07-24T03:43:53;18.00;80.90
26541;DHT22;14206;50.202;10.948;2023-07-24T03:46:20;18.00;81.20
26541;DHT22;14206;50.202;10.948;2023-07-24T03:48:47;18.00;81.40
26541;DHT22;14206;50.202;10.948;2023-07-24T03:51:15;18.00;81.90
26541;DHT22;14206;50.202;10.948;2023-07-24T03:53:42;18.10;82.00
26541;DHT22;14206;50.202;10.948;2023-07-24T03:56:09;18.10;82.20
26541;DHT22;14206;50.202;10.948;2023-07-24T03:58:37;18.20;81.90
26541;DHT22;14206;50.202;10.948;2023-07-24T04:01:06;18.20;81.60
26541;DHT22;14206;50.202;10.948;2023-07-24T04:03:33;18.30;81.70
26541;DHT22;14206;50.202;10.948;2023-07-24T04:06:00;18.30;81.60
26541;DHT22;14206;50.202;10.948;2023-07-24T04:08:27;18.40;81.50
26541;DHT22;14206;50.202;10.948;2023-07-24T04:10:54;18.50;81.30
26541;DHT22;14206;50.202;10.948;2023-07-24T04:13:24;18.50;81.40
26541;DHT22;14206;50.202;10.948;2023-07-24T04:15:52;18.50;81.80
26541;DHT22;14206;50.202;10.948;2023-07-24T04:18:19;18.50;82.40
26541;DHT22;14206;50.202;10.948;2023-07-24T04:20:46;18.50;83.00
26541;DHT22;14206;50.202;10.948;2023-07-24T04:23:12;18.50;83.30
26541;DHT22;14206;50.202;10.948;2023-07-24T04:25:39;18.60;83.50
26541;DHT22;14206;50.202;10.948;2023-07-24T04:28:06;18.60;83.40
26541;DHT22;14206;50.202;10.948;2023-07-24T04:30:33;18.70;83.50
26541;DHT22;14206;50.202;10.948;2023-07-24T04:33:05;18.70;83.60
26541;DHT22;14206;50.202;10.948;2023-07-24T04:35:32;18.70;84.10
26541;DHT22;14206;50.202;10.948;2023-07-24T04:37:59;18.70;84.40
26541;DHT22;14206;50.202;10.948;2023-07-24T04:40:26;18.70;84.80
26541;DHT22;14206;50.202;10.948;2023-07-24T04:42:54;18.70;85.00
26541;DHT22;14206;50.202;10.948;2023-07-24T04:45:21;18.70;85.00
26541;DHT22;14206;50.202;10.948;2023-07-24T04:47:49;18.70;85.40
26541;DHT22;14206;50.202;10.948;2023-07-24T04:50:17;18.70;85.20
26541;DHT22;14206;50.202;10.948;2023-07-24T04:52:44;18.70;85.20
26541;DHT22;14206;50.202;10.948;2023-07-24T04:55:11;18.80;85.50
26541;DHT22;14206;50.202;10.948;2023-07-24T04:57:38;18.80;85.50
26541;DHT22;14206;50.202;10.948;2023-07-24T05:00:05;18.80;85.60
26541;DHT22;14206;50.202;10.948;2023-07-24T05:02:32;18.80;85.60
26541;DHT22;14206;50.202;10.948;2023-07-24T05:04:59;18.90;85.50
26541;DHT22;14206;50.202;10.948;2023-07-24T05:07:26;18.90;85.70
26541;DHT22;14206;50.202;10.948;2023-07-24T05:09:53;19.00;85.60
26541;DHT22;14206;50.202;10.948;2023-07-24T05:12:21;19.10;85.80
26541;DHT22;14206;50.202;10.948;2023-07-24T05:14:48;19.10;86.00
26541;DHT22;14206;50.202;10.948;2023-07-24T05:17:15;19.20;85.90
26541;DHT22;14206;50.202;10.948;2023-07-24T05:19:42;19.30;86.20
26541;DHT22;14206;50.202;10.948;2023-07-24T05:22:09;19.40;86.20
26541;DHT22;14206;50.202;10.948;2023-07-24T05:24:37;19.50;86.20
26541;DHT22;14206;50.202;10.948;2023-07-24T05:27:05;19.70;86.40
26541;DHT22;14206;50.202;10.948;2023-07-24T05:29:32;19.80;85.70
26541;DHT22;14206;50.202;10.948;2023-07-24T05:31:59;20.00;84.80
26541;DHT22;14206;50.202;10.948;2023-07-24T05:34:26;20.20;84.20
26541;DHT22;14206;50.202;10.948;2023-07-24T05:36:53;20.30;83.60
26541;DHT22;14206;50.202;10.948;2023-07-24T05:39:19;20.40;83.20
26541;DHT22;14206;50.202;10.948;2023-07-24T05:41:47;20.50;82.80
26541;DHT22;14206;50.202;10.948;2023-07-24T05:44:15;20.70;82.80
26541;DHT22;14206;50.202;10.948;2023-07-24T05:46:41;20.80;82.20
26541;DHT22;14206;50.202;10.948;2023-07-24T05:49:08;20.90;82.50
26541;DHT22;14206;50.202;10.948;2023-07-24T05:51:35;21.00;82.10
26541;DHT22;14206;50.202;10.948;2023-07-24T05:54:02;21.10;81.70
26541;DHT22;14206;50.202;10.948;2023-07-24T05:56:29;21.20;81.70
26541;DHT22;14206;50.202;10.948;2023-07-24T05:58:56;21.30;81.60
26541;DHT22;14206;50.202;10.948;2023-07-24T06:01:23;21.50;81.20
26541;DHT22;14206;50.202;10.948;2023-07-24T06:03:50;21.70;80.90
26541;DHT22;14206;50.202;10.948;2023-07-24T06:06:17;21.80;80.40
26541;DHT22;14206;50.202;10.948;2023-07-24T06:08:44;22.00;79.60
26541;DHT22;14206;50.202;10.948;2023-07-24T06:11:11;22.10;79.10
26541;DHT22;14206;50.202;10.948;2023-07-24T06:13:38;22.30;78.70
26541;DHT22;14206;50.202;10.948;2023-07-24T06:16:05;22.60;78.20
26541;DHT22;14206;50.202;10.948;2023-07-24T06:18:34;22.80;77.40
26541;DHT22;14206;50.202;10.948;2023-07-24T06:21:01;22.80;76.80
26541;DHT22;14206;50.202;10.948;2023-07-24T06:23:28;22.90;76.80
26541;DHT22;14206;50.202;10.948;2023-07-24T06:25:55;23.00;76.30
26541;DHT22;14206;50.202;10.948;2023-07-24T06:28:22;23.20;76.60
26541;DHT22;14206;50.202;10.948;2023-07-24T06:30:52;23.50;75.50
26541;DHT22;14206;50.202;10.948;2023-07-24T06:33:20;23.80;75.20
26541;DHT22;14206;50.202;10.948;2023-07-24T06:35:51;24.10;74.50
26541;DHT22;14206;50.202;10.948;2023-07-24T06:38:18;24.40;73.00
26541;DHT22;14206;50.202;10.948;2023-07-24T06:40:44;24.60;72.80
26541;DHT22;14206;50.202;10.948;2023-07-24T06:43:11;24.70;72.80
26541;DHT22;14206;50.202;10.948;2023-07-24T06:45:38;24.90;72.30
26541;DHT22;14206;50.202;10.948;2023-07-24T06:48:07;25.00;72.10
26541;DHT22;14206;50.202;10.948;2023-07-24T06:50:34;24.90;71.80
26541;DHT22;14206;50.202;10.948;2023-07-24T06:53:01;24.80;71.70
26541;DHT22;14206;50.202;10.948;2023-07-24T06:55:28;24.70;72.20
26541;DHT22;14206;50.202;10.948;2023-07-24T06:57:55;24.60;72.00
26541;DHT22;14206;50.202;10.948;2023-07-24T07:00:22;24.50;72.10
26541;DHT22;14206;50.202;10.948;2023-07-24T07:02:49;24.40;72.70
26541;DHT22;14206;50.202;10.948;2023-07-24T07:05:16;24.40;73.20
26541;DHT22;14206;50.202;10.948;2023-07-24T07:07:42;24.50;73.30
26541;DHT22;14206;50.202;10.948;2023-07-24T07:10:09;24.50;73.30
26541;DHT22;14206;50.202;10.948;2023-07-24T07:12:36;24.50;73.10
26541;DHT22;14206;50.202;10.948;2023-07-24T07:15:03;24.60;73.50
26541;DHT22;14206;50.202;10.948;2023-07-24T07:17:30;24.40;73.60
26541;DHT22;14206;50.202;10.948;2023-07-24T07:19:57;24.20;74.00
26541;DHT22;14206;50.202;10.948;2023-07-24T07:22:24;24.00;74.10
26541;DHT22;14206;50.202;10.948;2023-07-24T07:24:51;23.90;74.20
26541;DHT22;14206;50.202;10.948;2023-07-24T07:27:18;23.60;75.00
26541;DHT22;14206;50.202;10.948;2023-07-24T07:29:45;23.50;76.00
26541;DHT22;14206;50.202;10.948;2023-07-24T07:32:12;23.40;76.80
26541;DHT22;14206;50.202;10.948;2023-07-24T07:34:39;23.40;76.90
26541;DHT22;14206;50.202;10.948;2023-07-24T07:37:06;23.50;76.90
26541;DHT22;14206;50.202;10.948;2023-07-24T07:39:33;23.70;76.80
26541;DHT22;14206;50.202;10.948;2023-07-24T07:42:00;23.70;76.70
26541;DHT22;14206;50.202;10.948;2023-07-24T07:44:33;23.70;76.60
26541;DHT22;14206;50.202;10.948;2023-07-24T07:47:00;23.70;76.50
26541;DHT22;14206;50.202;10.948;2023-07-24T07:49:27;23.70;76.50
26541;DHT22;14206;50.202;10.948;2023-07-24T07:51:56;23.80;76.30
26541;DHT22;14206;50.202;10.948;2023-07-24T07:54:23;23.80;76.30
26541;DHT22;14206;50.202;10.948;2023-07-24T07:56:50;23.80;76.30
26541;DHT22;14206;50.202;10.948;2023-07-24T07:59:17;23.90;76.00
26541;DHT22;14206;50.202;10.948;2023-07-24T08:01:44;23.90;76.70
26541;DHT22;14206;50.202;10.948;2023-07-24T08:04:13;24.00;75.70
26541;DHT22;14206;50.202;10.948;2023-07-24T08:06:40;24.20;75.30
26541;DHT22;14206;50.202;10.948;2023-07-24T08:09:06;24.40;75.00
26541;DHT22;14206;50.202;10.948;2023-07-24T08:11:33;24.70;74.40
26541;DHT22;14206;50.202;10.948;2023-07-24T08:14:00;24.90;73.30
26541;DHT22;14206;50.202;10.948;2023-07-24T08:16:27;25.20;72.30
26541;DHT22;14206;50.202;10.948;2023-07-24T08:18:55;25.40;70.70
26541;DHT22;14206;50.202;10.948;2023-07-24T08:21:24;25.60;70.30
26541;DHT22;14206;50.202;10.948;2023-07-24T08:23:51;25.70;70.00
26541;DHT22;14206;50.202;10.948;2023-07-24T08:26:18;25.90;69.30
26541;DHT22;14206;50.202;10.948;2023-07-24T08:28:44;26.10;67.40
26541;DHT22;14206;50.202;10.948;2023-07-24T08:31:11;26.20;67.30
26541;DHT22;14206;50.202;10.948;2023-07-24T08:33:38;26.40;66.50
26541;DHT22;14206;50.202;10.948;2023-07-24T08:36:08;26.50;66.40
26541;DHT22;14206;50.202;10.948;2023-07-24T08:38:35;26.60;65.70
26541;DHT22;14206;50.202;10.948;2023-07-24T08:41:07;26.60;65.40
26541;DHT22;14206;50.202;10.948;2023-07-24T08:43:36;26.60;64.90
26541;DHT22;14206;50.202;10.948;2023-07-24T08:46:05;26.80;64.80
26541;DHT22;14206;50.202;10.948;2023-07-24T08:48:37;27.10;64.20
26541;DHT22;14206;50.202;10.948;2023-07-24T08:51:06;27.40;63.10
26541;DHT22;14206;50.202;10.948;2023-07-24T08:53:37;27.60;63.00
26541;DHT22;14206;50.202;10.948;2023-07-24T08:56:06;27.70;62.20
26541;DHT22;14206;50.202;10.948;2023-07-24T08:58:34;27.90;61.30
26541;DHT22;14206;50.202;10.948;2023-07-24T09:01:03;27.90;61.80
26541;DHT22;14206;50.202;10.948;2023-07-24T09:03:33;28.30;60.40
26541;DHT22;14206;50.202;10.948;2023-07-24T09:06:01;28.60;60.20
26541;DHT22;14206;50.202;10.948;2023-07-24T09:08:39;29.20;60.00
26541;DHT22;14206;50.202;10.948;2023-07-24T09:11:07;29.10;58.80
26541;DHT22;14206;50.202;10.948;2023-07-24T09:13:40;28.80;60.20
26541;DHT22;14206;50.202;10.948;2023-07-24T09:16:08;28.40;60.40
26541;DHT22;14206;50.202;10.948;2023-07-24T09:18:43;28.00;61.10
26541;DHT22;14206;50.202;10.948;2023-07-24T09:21:10;27.40;62.70
26541;DHT22;14206;50.202;10.948;2023-07-24T09:23:40;26.80;64.90
26541;DHT22;14206;50.202;10.948;2023-07-24T09:26:10;26.30;66.60
26541;DHT22;14206;50.202;10.948;2023-07-24T09:28:37;26.10;68.40
26541;DHT22;14206;50.202;10.948;2023-07-24T09:31:04;25.90;69.00
26541;DHT22;14206;50.202;10.948;2023-07-24T09:33:36;25.80;69.70
26541;DHT22;14206;50.202;10.948;2023-07-24T09:36:05;25.70;70.30
26541;DHT22;14206;50.202;10.948;2023-07-24T09:38:39;25.50;71.30
26541;DHT22;14206;50.202;10.948;2023-07-24T09:41:06;25.40;72.00
26541;DHT22;14206;50.202;10.948;2023-07-24T09:43:34;25.10;72.70
26541;DHT22;14206;50.202;10.948;2023-07-24T09:46:09;24.80;73.90
26541;DHT22;14206;50.202;10.948;2023-07-24T09:48:37;24.50;74.80
26541;DHT22;14206;50.202;10.948;2023-07-24T09:51:11;24.20;75.80
26541;DHT22;14206;50.202;10.948;2023-07-24T09:53:45;23.90;77.00
26541;DHT22;14206;50.202;10.948;2023-07-24T09:56:15;23.60;77.70
26541;DHT22;14206;50.202;10.948;2023-07-24T09:58:44;23.40;78.70
26541;DHT22;14206;50.202;10.948;2023-07-24T10:01:12;23.20;80.20
26541;DHT22;14206;50.202;10.948;2023-07-24T10:03:46;23.00;80.70
26541;DHT22;14206;50.202;10.948;2023-07-24T10:06:15;22.90;80.90
26541;DHT22;14206;50.202;10.948;2023-07-24T10:08:42;22.80;82.10
26541;DHT22;14206;50.202;10.948;2023-07-24T10:11:11;22.80;82.50
26541;DHT22;14206;50.202;10.948;2023-07-24T10:13:39;22.80;82.90
26541;DHT22;14206;50.202;10.948;2023-07-24T10:16:07;22.90;82.50
26541;DHT22;14206;50.202;10.948;2023-07-24T10:18:41;23.00;82.80
26541;DHT22;14206;50.202;10.948;2023-07-24T10:21:09;23.10;82.30
26541;DHT22;14206;50.202;10.948;2023-07-24T10:23:40;23.20;82.50
26541;DHT22;14206;50.202;10.948;2023-07-24T10:26:08;23.30;82.70
26541;DHT22;14206;50.202;10.948;2023-07-24T10:28:37;23.40;82.00
26541;DHT22;14206;50.202;10.948;2023-07-24T10:31:23;23.60;81.80
26541;DHT22;14206;50.202;10.948;2023-07-24T10:33:50;23.80;80.70
26541;DHT22;14206;50.202;10.948;2023-07-24T10:36:19;24.10;80.20
26541;DHT22;14206;50.202;10.948;2023-07-24T10:38:51;24.60;79.10
26541;DHT22;14206;50.202;10.948;2023-07-24T10:41:18;25.10;77.70
26541;DHT22;14206;50.202;10.948;2023-07-24T10:43:52;25.50;75.70
26541;DHT22;14206;50.202;10.948;2023-07-24T10:46:20;25.60;75.90
26541;DHT22;14206;50.202;10.948;2023-07-24T10:48:49;25.80;74.90
26541;DHT22;14206;50.202;10.948;2023-07-24T10:51:16;26.00;74.60
26541;DHT22;14206;50.202;10.948;2023-07-24T10:53:48;26.20;73.70
26541;DHT22;14206;50.202;10.948;2023-07-24T10:56:16;26.20;73.80
26541;DHT22;14206;50.202;10.948;2023-07-24T10:58:43;26.20;74.10
26541;DHT22;14206;50.202;10.948;2023-07-24T11:01:10;26.30;74.20
26541;DHT22;14206;50.202;10.948;2023-07-24T11:03:40;26.40;74.50
26541;DHT22;14206;50.202;10.948;2023-07-24T11:06:19;26.50;73.20
26541;DHT22;14206;50.202;10.948;2023-07-24T11:08:53;26.70;72.60
26541;DHT22;14206;50.202;10.948;2023-07-24T11:11:31;26.70;72.20
26541;DHT22;14206;50.202;10.948;2023-07-24T11:14:01;26.70;71.80
26541;DHT22;14206;50.202;10.948;2023-07-24T11:16:29;26.70;72.40
26541;DHT22;14206;50.202;10.948;2023-07-24T11:19:01;26.60;73.20
26541;DHT22;14206;50.202;10.948;2023-07-24T11:21:28;26.60;73.40
26541;DHT22;14206;50.202;10.948;2023-07-24T11:23:57;26.50;73.30
26541;DHT22;14206;50.202;10.948;2023-07-24T11:26:26;26.40;73.40
26541;DHT22;14206;50.202;10.948;2023-07-24T11:28:53;26.40;73.40
26541;DHT22;14206;50.202;10.948;2023-07-24T11:31:21;26.40;73.90
26541;DHT22;14206;50.202;10.948;2023-07-24T11:33:52;26.40;74.10
26541;DHT22;14206;50.202;10.948;2023-07-24T11:36:19;26.50;73.80
26541;DHT22;14206;50.202;10.948;2023-07-24T11:38:46;26.50;73.00
26541;DHT22;14206;50.202;10.948;2023-07-24T11:41:15;26.50;73.10
26541;DHT22;14206;50.202;10.948;2023-07-24T11:43:47;26.60;73.30
26541;DHT22;14206;50.202;10.948;2023-07-24T11:46:25;26.70;73.70
26541;DHT22;14206;50.202;10.948;2023-07-24T11:48:54;26.80;73.50
26541;DHT22;14206;50.202;10.948;2023-07-24T11:51:25;26.80;72.60
26541;DHT22;14206;50.202;10.948;2023-07-24T11:54:07;26.80;73.30
26541;DHT22;14206;50.202;10.948;2023-07-24T11:56:35;26.60;73.60
26541;DHT22;14206;50.202;10.948;2023-07-24T11:59:12;26.60;73.80
26541;DHT22;14206;50.202;10.948;2023-07-24T12:01:40;26.60;74.10
26541;DHT22;14206;50.202;10.948;2023-07-24T12:04:07;26.70;74.30
26541;DHT22;14206;50.202;10.948;2023-07-24T12:06:35;26.70;74.60
26541;DHT22;14206;50.202;10.948;2023-07-24T12:09:03;26.80;74.00
26541;DHT22;14206;50.202;10.948;2023-07-24T12:11:34;26.80;73.70
26541;DHT22;14206;50.202;10.948;2023-07-24T12:14:05;26.90;73.80
26541;DHT22;14206;50.202;10.948;2023-07-24T12:16:34;27.00;73.20
26541;DHT22;14206;50.202;10.948;2023-07-24T12:19:01;27.00;72.80
26541;DHT22;14206;50.202;10.948;2023-07-24T12:21:27;27.00;72.80
26541;DHT22;14206;50.202;10.948;2023-07-24T12:23:55;26.90;73.20
26541;DHT22;14206;50.202;10.948;2023-07-24T12:26:22;26.80;73.60
26541;DHT22;14206;50.202;10.948;2023-07-24T12:28:51;26.80;73.90
26541;DHT22;14206;50.202;10.948;2023-07-24T12:31:18;26.70;74.20
26541;DHT22;14206;50.202;10.948;2023-07-24T12:33:45;26.60;75.00
26541;DHT22;14206;50.202;10.948;2023-07-24T12:36:12;26.60;74.80
26541;DHT22;14206;50.202;10.948;2023-07-24T12:38:39;26.50;74.50
26541;DHT22;14206;50.202;10.948;2023-07-24T12:41:06;26.50;75.40
26541;DHT22;14206;50.202;10.948;2023-07-24T12:43:33;26.50;74.70
26541;DHT22;14206;50.202;10.948;2023-07-24T12:46:00;26.50;74.70
26541;DHT22;14206;50.202;10.948;2023-07-24T12:48:27;26.50;75.30
26541;DHT22;14206;50.202;10.948;2023-07-24T12:50:56;26.50;74.00
26541;DHT22;14206;50.202;10.948;2023-07-24T12:53:24;26.50;73.90
26541;DHT22;14206;50.202;10.948;2023-07-24T12:55:57;26.40;74.20
26541;DHT22;14206;50.202;10.948;2023-07-24T12:58:24;26.50;74.40
26541;DHT22;14206;50.202;10.948;2023-07-24T13:00:51;26.60;73.70
26541;DHT22;14206;50.202;10.948;2023-07-24T13:03:19;26.70;72.10
26541;DHT22;14206;50.202;10.948;2023-07-24T13:05:46;26.70;72.60
26541;DHT22;14206;50.202;10.948;2023-07-24T13:08:13;26.70;73.00
26541;DHT22;14206;50.202;10.948;2023-07-24T13:10:41;26.80;71.70
26541;DHT22;14206;50.202;10.948;2023-07-24T13:13:08;26.90;71.50
26541;DHT22;14206;50.202;10.948;2023-07-24T13:15:36;27.00;69.90
26541;DHT22;14206;50.202;10.948;2023-07-24T13:18:05;27.00;69.70
26541;DHT22;14206;50.202;10.948;2023-07-24T13:20:52;26.90;68.90
26541;DHT22;14206;50.202;10.948;2023-07-24T13:23:19;26.90;69.20
26541;DHT22;14206;50.202;10.948;2023-07-24T13:25:46;26.90;69.30
26541;DHT22;14206;50.202;10.948;2023-07-24T13:28:13;27.00;69.50
26541;DHT22;14206;50.202;10.948;2023-07-24T13:30:40;27.10;68.50
26541;DHT22;14206;50.202;10.948;2023-07-24T13:33:07;27.20;69.00
26541;DHT22;14206;50.202;10.948;2023-07-24T13:35:35;27.20;69.50
26541;DHT22;14206;50.202;10.948;2023-07-24T13:38:03;27.30;69.90
26541;DHT22;14206;50.202;10.948;2023-07-24T13:40:30;27.30;70.00
26541;DHT22;14206;50.202;10.948;2023-07-24T13:42:57;27.40;69.10
26541;DHT22;14206;50.202;10.948;2023-07-24T13:45:25;27.30;69.50
26541;DHT22;14206;50.202;10.948;2023-07-24T13:47:52;27.30;67.40
26541;DHT22;14206;50.202;10.948;2023-07-24T13:50:19;27.30;68.40
26541;DHT22;14206;50.202;10.948;2023-07-24T13:52:46;27.40;66.80
26541;DHT22;14206;50.202;10.948;2023-07-24T13:55:13;27.50;62.70
26541;DHT22;14206;50.202;10.948;2023-07-24T13:57:41;27.40;62.90
26541;DHT22;14206;50.202;10.948;2023-07-24T14:00:08;27.40;62.10
26541;DHT22;14206;50.202;10.948;2023-07-24T14:02:39;27.40;63.00
26541;DHT22;14206;50.202;10.948;2023-07-24T14:05:06;27.30;61.30
26541;DHT22;14206;50.202;10.948;2023-07-24T14:07:34;27.30;61.40
26541;DHT22;14206;50.202;10.948;2023-07-24T14:10:00;27.30;61.50
26541;DHT22;14206;50.202;10.948;2023-07-24T14:12:27;27.30;62.50
26541;DHT22;14206;50.202;10.948;2023-07-24T14:14:54;27.30;62.10
26541;DHT22;14206;50.202;10.948;2023-07-24T14:17:21;27.40;61.40
26541;DHT22;14206;50.202;10.948;2023-07-24T14:19:48;27.50;59.50
26541;DHT22;14206;50.202;10.948;2023-07-24T14:22:15;27.40;59.20
26541;DHT22;14206;50.202;10.948;2023-07-24T14:24:42;27.40;59.20
26541;DHT22;14206;50.202;10.948;2023-07-24T14:27:09;27.20;59.70
26541;DHT22;14206;50.202;10.948;2023-07-24T14:29:36;27.20;60.70
26541;DHT22;14206;50.202;10.948;2023-07-24T14:32:03;27.40;62.10
26541;DHT22;14206;50.202;10.948;2023-07-24T14:34:30;27.60;62.00
26541;DHT22;14206;50.202;10.948;2023-07-24T14:36:57;27.50;61.50
26541;DHT22;14206;50.202;10.948;2023-07-24T14:39:24;27.50;62.10
26541;DHT22;14206;50.202;10.948;2023-07-24T14:41:52;27.60;62.00
26541;DHT22;14206;50.202;10.948;2023-07-24T14:44:19;27.60;61.80
26541;DHT22;14206;50.202;10.948;2023-07-24T14:46:46;27.60;61.50
26541;DHT22;14206;50.202;10.948;2023-07-24T14:49:13;27.60;62.20
26541;DHT22;14206;50.202;10.948;2023-07-24T14:51:40;27.60;62.30
26541;DHT22;14206;50.202;10.948;2023-07-24T14:54:07;27.50;63.40
26541;DHT22;14206;50.202;10.948;2023-07-24T14:56:34;27.50;63.10
26541;DHT22;14206;50.202;10.948;2023-07-24T14:59:20;27.40;62.50
26541;DHT22;14206;50.202;10.948;2023-07-24T15:01:48;27.20;63.30
26541;DHT22;14206;50.202;10.948;2023-07-24T15:04:15;27.10;64.20
26541;DHT22;14206;50.202;10.948;2023-07-24T15:06:42;27.00;64.90
26541;DHT22;14206;50.202;10.948;2023-07-24T15:09:09;26.90;64.30
26541;DHT22;14206;50.202;10.948;2023-07-24T15:11:36;26.80;63.90
26541;DHT22;14206;50.202;10.948;2023-07-24T15:14:03;26.80;64.70
26541;DHT22;14206;50.202;10.948;2023-07-24T15:16:30;26.80;64.20
26541;DHT22;14206;50.202;10.948;2023-07-24T15:18:57;26.70;64.80
26541;DHT22;14206;50.202;10.948;2023-07-24T15:21:23;26.70;65.70
26541;DHT22;14206;50.202;10.948;2023-07-24T15:23:52;26.70;65.80